Latest Weather Observations for Learmonth

IDW60801

Issued at 11:33 pm WST Wednesday 19 December 2018 (issued every 10 minutes, with the page automatically refreshed every 10 minutes)

About weather observations | Map of weather stations | Latest weather observations for WA | Other Formats
Station Details ID: 005007 Name: LEARMONTH AIRPORT Lat: -22.24 Lon: 114.10 Height: 5.0 m
Data from the previous 72 hours. | See also: Recent months at Learmonth
Date/Time
WST
Temp
°C
App
Temp
°C
Dew
Point
°C
Rel
Hum
%
Delta-T
°C
Wind Press
QNH
hPa
Press
MSL
hPa
Rain since
9am
mm
Dir  Spd
km/h
Gust
km/h
Spd
kts
Gust
kts
19/11:30pm 26.3 23.7 15.0 49 6.8 SSW 22 28 12 15 1009.2 1009.1 0.0
19/11:00pm 26.8 23.7 14.5 46 7.4 SW 24 33 13 18 1009.1 1009.0 0.0
19/10:30pm 27.3 24.3 14.7 46 7.6 SW 24 33 13 18 1009.2 1009.1 0.0
19/10:00pm 27.8 23.9 13.3 40 8.6 SW 26 33 14 18 1008.9 1008.8 0.0
19/09:30pm 28.1 24.0 12.8 38 9.0 SW 26 35 14 19 1008.7 1008.6 0.0
19/09:00pm 28.7 24.3 11.7 35 9.8 SW 26 35 14 19 1008.4 1008.3 0.0
19/08:30pm 29.7 24.4 9.8 29 11.2 SW 28 39 15 21 1008.0 1007.9 0.0
19/08:00pm 29.8 24.1 9.9 29 11.2 SW 30 43 16 23 1007.7 1007.6 0.0
19/07:30pm 29.9 23.4 10.5 30 11.0 SW 35 44 19 24 1007.2 1007.1 0.0
19/07:00pm 30.6 24.1 10.5 29 11.5 SW 35 50 19 27 1006.8 1006.7 0.0
19/06:30pm 32.8 24.6 8.3 22 13.7 SW 41 59 22 32 1006.3 1006.2 0.0
19/06:00pm 35.1 26.9 8.0 19 15.2 SW 41 48 22 26 1005.9 1005.8 0.0
19/05:30pm 36.3 29.4 9.0 19 15.6 SW 35 43 19 23 1005.7 1005.6 0.0
19/05:00pm 38.3 30.8 6.1 14 17.9 SW 35 46 19 25 1005.4 1005.3 0.0
19/04:30pm 38.9 31.6 5.5 13 18.4 SW 33 44 18 24 1005.3 1005.2 0.0
19/04:15pm 39.9 32.9 3.9 11 19.4 SW 30 48 16 26 1005.2 1005.1 0.0
19/04:00pm 39.6 32.9 3.7 11 19.3 SSW 28 44 15 24 1005.2 1005.1 0.0
19/03:30pm 40.0 34.7 -0.5 8 20.5 N 17 24 9 13 1005.3 1005.2 0.0
19/03:00pm 40.1 34.8 -0.4 8 20.6 NNE 17 22 9 12 1005.6 1005.5 0.0
19/02:30pm 40.4 34.6 -0.2 8 20.7 ENE 20 26 11 14 1006.0 1005.9 0.0
19/02:00pm 39.9 35.5 -2.4 7 20.8 SE 11 20 6 11 1006.3 1006.2 0.0
19/01:30pm 39.7 35.1 -0.7 8 20.3 ESE 13 32 7 17 1006.9 1006.8 0.0
19/01:00pm 39.5 34.6 2.2 10 19.6 E 17 24 9 13 1007.4 1007.3 0.0
19/12:30pm 38.7 33.4 3.0 11 18.9 E 20 26 11 14 1007.7 1007.6 0.0
19/12:00pm 38.0 33.2 2.5 11 18.6 SE 17 28 9 15 1008.2 1008.1 0.0
19/11:30am 37.6 32.6 4.5 13 17.8 SE 20 30 11 16 1008.6 1008.5 0.0
19/11:00am 37.3 31.7 5.3 14 17.4 SE 24 35 13 19 1008.8 1008.7 0.0
19/10:30am 36.7 31.6 5.9 15 16.9 SSE 22 32 12 17 1009.1 1009.0 0.0
19/10:00am 35.2 30.4 7.3 18 15.5 S 22 33 12 18 1009.3 1009.2 0.0
19/09:30am 33.2 28.5 9.3 23 13.6 SSW 24 32 13 17 1009.6 1009.5 0.0
19/09:00am 31.6 26.7 9.8 26 12.4 SSW 26 32 14 17 1009.8 1009.7 0.0
19/08:30am 29.8 25.2 10.9 31 10.8 S 26 32 14 17 1009.9 1009.8 0.0
19/08:00am 28.2 23.8 11.7 36 9.5 SSW 26 32 14 17 1010.0 1009.9 0.0
19/07:30am 26.0 22.4 13.2 45 7.5 SSW 24 32 13 17 1009.9 1009.8 0.0
19/07:00am 23.8 21.0 14.2 55 5.7 SSW 22 32 12 17 1009.9 1009.8 0.0
19/06:30am 21.9 18.9 14.8 64 4.2 SSW 24 30 13 16 1009.7 1009.6 0.0
19/06:00am 20.9 18.3 14.8 68 3.6 SW 22 32 12 17 1009.6 1009.5 0.0
19/05:30am 20.6 17.6 14.9 70 3.3 SW 24 30 13 16 1009.2 1009.1 0.0
19/05:00am 20.8 17.8 14.9 69 3.5 SSW 24 30 13 16 1009.0 1008.9 0.0
19/04:30am 21.2 17.9 15.1 68 3.6 SW 26 33 14 18 1008.9 1008.8 0.0
19/04:00am 21.2 18.0 15.3 69 3.5 SW 26 30 14 16 1008.8 1008.7 0.0
19/03:30am 21.2 18.5 15.7 71 3.3 SSW 24 30 13 16 1008.9 1008.8 0.0
19/03:00am 21.4 18.8 15.9 71 3.3 SSW 24 32 13 17 1008.8 1008.7 0.0
19/02:30am 21.7 19.1 16.0 70 3.4 SSW 24 33 13 18 1008.7 1008.6 0.0
19/02:00am 22.0 19.4 15.8 68 3.7 SW 24 35 13 19 1008.7 1008.6 0.0
19/01:30am 22.3 19.5 15.4 65 4.1 SW 24 33 13 18 1008.8 1008.7 0.0
19/01:00am 22.5 19.6 15.1 63 4.4 SW 24 33 13 18 1009.1 1009.0 0.0
19/12:30am 22.7 19.3 14.8 61 4.7 SW 26 33 14 18 1009.3 1009.2 0.0
19/12:00am 22.6 19.3 15.0 62 4.5 SW 26 35 14 19 1009.6 1009.5 0.0
 
Date/Time
WST
Temp
°C
App
Temp
°C
Dew
Point
°C
Rel
Hum
%
Delta-T
°C
Wind Press
QNH
hPa
Press
MSL
hPa
Rain since
9am
mm
Dir  Spd
km/h
Gust
km/h
Spd
kts
Gust
kts
18/11:30pm 22.8 19.9 16.1 66 4.1 SW 26 32 14 17 1010.1 1010.0 0.0
18/11:00pm 23.3 20.2 16.6 66 4.1 SW 28 37 15 20 1010.4 1010.3 0.0
18/10:30pm 24.0 20.2 16.8 64 4.4 SW 32 39 17 21 1010.6 1010.5 0.0
18/10:00pm 24.3 20.8 16.6 62 4.7 SW 30 39 16 21 1010.7 1010.6 0.0
18/09:30pm 25.2 21.3 15.5 55 5.9 SW 30 46 16 25 1010.4 1010.3 0.0
18/09:00pm 25.6 21.1 13.8 48 7.0 SW 30 39 16 21 1010.2 1010.1 0.0
18/08:30pm 25.3 21.0 14.4 50 6.5 SW 30 37 16 20 1010.1 1010.0 0.0
18/08:00pm 25.7 21.0 14.8 51 6.5 SW 33 43 18 23 1009.8 1009.7 0.0
18/07:30pm 26.5 21.8 14.9 49 7.0 SW 33 43 18 23 1009.5 1009.4 0.0
18/07:00pm 27.8 23.2 15.1 46 7.7 WSW 33 43 18 23 1009.1 1009.0 0.0
18/06:30pm 29.6 25.1 15.0 41 8.9 SW 32 41 17 22 1008.6 1008.5 0.0
18/06:00pm 31.0 25.4 13.3 34 10.6 WSW 35 43 19 23 1008.2 1008.1 0.0
18/05:30pm 32.4 26.8 12.1 29 12.0 WSW 33 44 18 24 1008.1 1008.0 0.0
18/05:00pm 33.2 27.0 12.8 29 12.2 WSW 37 48 20 26 1007.8 1007.7 0.0
18/04:30pm 34.7 29.0 13.0 27 13.1 WSW 35 44 19 24 1007.8 1007.7 0.0
18/04:00pm 33.7 28.4 14.2 30 12.0 W 35 46 19 25 1007.8 1007.7 0.0
18/03:30pm 35.3 33.0 14.6 29 12.8 WNW 20 37 11 20 1008.0 1007.9 0.0
18/03:00pm 35.3 31.1 5.7 16 16.1 NNE 17 32 9 17 1008.3 1008.2 0.0
18/02:30pm 34.6 30.8 6.0 17 15.5 E 15 28 8 15 1008.8 1008.7 0.0
18/02:00pm 34.2 30.8 3.9 15 15.9 NE 11 17 6 9 1009.5 1009.4 0.0
18/01:30pm 33.8 29.7 7.7 20 14.5 E 19 24 10 13 1009.9 1009.8 0.0
18/01:00pm 33.9 30.7 11.1 25 13.4 ESE 19 26 10 14 1010.1 1010.0 0.0
18/12:30pm 33.3 30.2 12.3 28 12.5 E 20 28 11 15 1010.3 1010.2 0.0
18/12:00pm 32.9 29.3 12.0 28 12.4 SE 22 30 12 16 1010.5 1010.4 0.0
18/11:30am 31.7 28.0 11.5 29 11.8 SSE 22 33 12 18 1011.0 1010.9 0.0
18/11:00am 30.7 26.6 12.6 33 10.7 SSE 26 39 14 21 1011.4 1011.3 0.0
18/10:30am 29.8 25.7 12.7 35 10.1 SSE 26 39 14 21 1011.6 1011.5 0.0
18/10:00am 29.6 25.7 13.4 37 9.7 S 26 33 14 18 1011.9 1011.8 0.0
18/09:30am 27.8 23.9 14.4 43 8.0 S 28 37 15 20 1012.0 1011.9 0.0
18/09:00am 26.0 22.1 14.5 49 6.9 S 28 39 15 21 1012.0 1011.9 0.0
18/08:30am 24.9 20.6 14.4 52 6.2 S 30 39 16 21 1011.9 1011.8 0.0
18/08:00am 23.5 19.4 15.0 59 5.1 SSW 30 35 16 19 1012.0 1011.9 0.0
18/07:30am 22.3 18.0 15.4 65 4.1 SSW 32 39 17 21 1011.9 1011.8 0.0
18/07:00am 21.5 17.4 16.0 71 3.3 SSW 32 41 17 22 1011.8 1011.7 0.0
18/06:30am 20.0 17.1 16.0 78 2.4 SSW 26 33 14 18 1011.6 1011.5 0.0
18/06:00am 18.9 16.7 16.0 83 1.7 SSW 22 30 12 16 1011.4 1011.3 0.0
18/05:30am 18.6 15.9 15.7 83 1.7 SSW 24 30 13 16 1011.1 1011.0 0.0
18/05:00am 18.7 16.0 15.6 82 1.8 SSW 24 32 13 17 1010.9 1010.8 0.0
18/04:30am 19.0 16.0 15.9 82 1.8 SSW 26 32 14 17 1010.5 1010.4 0.0
18/04:00am 19.0 16.3 15.7 81 2.0 SW 24 30 13 16 1010.5 1010.4 0.0
18/03:30am 19.0 16.3 15.7 81 2.0 SSW 24 32 13 17 1010.4 1010.3 0.0
18/03:00am 19.4 16.1 16.1 81 2.0 SSW 28 35 15 19 1010.4 1010.3 0.0
18/02:30am 19.7 16.5 16.3 81 2.0 SW 28 35 15 19 1010.5 1010.4 0.0
18/02:00am 19.9 16.3 16.3 80 2.2 SSW 30 41 16 22 1010.5 1010.4 0.0
18/01:30am 20.1 16.2 16.5 80 2.2 SW 32 41 17 22 1010.7 1010.6 0.0
18/01:00am 20.3 16.8 16.5 79 2.3 SW 30 39 16 21 1010.7 1010.6 0.0
18/12:30am 20.5 16.5 16.7 79 2.3 SW 33 44 18 24 1011.0 1010.9 0.0
18/12:00am 20.7 16.9 16.7 78 2.4 SW 32 43 17 23 1011.2 1011.1 0.0
 
Date/Time
WST
Temp
°C
App
Temp
°C
Dew
Point
°C
Rel
Hum
%
Delta-T
°C
Wind Press
QNH
hPa
Press
MSL
hPa
Rain since
9am
mm
Dir  Spd
km/h
Gust
km/h
Spd
kts
Gust
kts
17/11:30pm 20.8 17.0 16.6 77 2.5 SW 32 43 17 23 1011.5 1011.4 0.0
17/11:00pm 20.9 17.0 16.5 76 2.7 SW 32 44 17 24 1011.6 1011.5 0.0
17/10:30pm 21.1 16.9 16.3 74 2.9 SW 33 44 18 24 1011.7 1011.6 0.0
17/10:00pm 21.2 16.6 16.2 73 3.0 SW 35 52 19 28 1011.7 1011.6 0.0
17/09:54pm 21.3 17.0 16.0 72 3.2 SW 33 52 18 28 1011.7 1011.6 0.0
17/09:30pm 21.4 17.2 16.1 72 3.2 SW 33 43 18 23 1011.6 1011.5 0.0
17/09:00pm 21.6 16.8 15.7 69 3.5 SW 35 46 19 25 1011.4 1011.3 0.0
17/08:30pm 21.8 16.6 15.6 68 3.7 SW 37 46 20 25 1011.2 1011.1 0.0
17/08:00pm 22.0 16.8 15.6 67 3.8 SW 37 50 20 27 1010.8 1010.7 0.0
17/07:30pm 22.6 16.7 14.7 61 4.7 SW 39 56 21 30 1010.5 1010.4 0.0
17/07:00pm 23.4 16.4 13.6 54 5.7 SW 43 57 23 31 1010.0 1009.9 0.0
17/06:30pm 24.4 17.1 13.3 50 6.5 SW 44 56 24 30 1009.7 1009.6 0.0
17/06:00pm 25.0 16.9 13.2 48 6.9 SW 48 63 26 34 1009.2 1009.1 0.0
17/05:30pm 26.0 16.8 13.5 46 7.3 SW 54 67 29 36 1008.9 1008.8 0.0
17/05:00pm 26.5 17.5 12.9 43 7.9 SW 52 63 28 34 1008.6 1008.5 0.0
17/04:30pm 27.6 19.0 12.8 40 8.7 SW 50 65 27 35 1008.5 1008.4 0.0
17/04:22pm 27.7 19.7 12.5 39 8.9 SW 46 65 25 35 1008.5 1008.4 0.0
17/04:00pm 28.3 19.6 12.6 38 9.2 SW 50 63 27 34 1008.6 1008.5 0.0
17/03:30pm 29.7 22.2 12.6 35 10.1 SW 44 63 24 34 1008.8 1008.7 0.0
17/03:28pm 29.2 21.5 12.2 35 9.9 SW 44 63 24 34 1008.8 1008.7 0.0
17/03:00pm 29.4 21.6 11.9 34 10.2 SW 44 56 24 30 1009.1 1009.0 0.0
17/02:30pm 30.0 22.4 12.4 34 10.3 SW 44 61 24 33 1009.5 1009.4 0.0
17/02:00pm 29.9 22.6 12.8 35 10.1 SSW 43 61 23 33 1010.0 1009.9 0.0
17/01:57pm 30.0 22.6 12.4 34 10.3 SSW 43 61 23 33 1009.9 1009.8 0.0
17/01:30pm 29.8 22.9 12.7 35 10.1 SSW 41 54 22 29 1010.2 1010.1 0.0
17/01:14pm 29.3 22.4 12.7 36 9.8 SSW 41 65 22 35 1010.2 1010.1 0.0
17/01:00pm 29.3 22.4 12.7 36 9.8 SSW 41 56 22 30 1010.7 1010.6 0.0
17/12:30pm 30.0 23.9 12.9 35 10.1 SSW 37 54 20 29 1011.0 1010.9 0.0
17/12:07pm 29.1 23.2 12.5 36 9.7 SSW 35 54 19 29 1011.2 1011.1 0.0
17/12:00pm 29.0 23.2 12.8 36 9.5 SSW 35 50 19 27 1011.3 1011.2 0.0
17/11:31am 28.7 23.1 12.2 36 9.6 SSW 33 52 18 28 1011.7 1011.6 0.0
17/11:30am 29.2 23.4 12.6 36 9.7 SSW 35 52 19 28 1011.7 1011.6 0.0
17/11:03am 28.9 23.9 12.3 36 9.7 SSW 30 54 16 29 1011.9 1011.8 0.0
17/11:00am 27.6 22.1 12.0 38 9.0 SSW 32 44 17 24 1012.0 1011.9 0.0
17/10:30am 27.6 22.1 12.4 39 8.8 SSW 33 54 18 29 1012.4 1012.3 0.0
17/10:28am 27.9 22.0 12.3 38 9.1 SSW 35 54 19 29 1012.3 1012.2 0.0
17/10:00am 26.6 20.7 11.1 38 8.8 S 33 46 18 25 1012.8 1012.7 0.0
17/09:30am 26.7 21.3 12.7 42 8.1 SSW 33 52 18 28 1013.0 1012.9 0.0
17/09:25am 26.2 20.7 12.6 43 7.9 SSW 33 52 18 28 1013.0 1012.9 0.0
17/09:00am 24.9 19.6 12.5 46 7.1 SSW 32 48 17 26 1013.2 1013.1 0.0
17/08:30am 24.0 18.1 13.5 52 6.1 SSW 37 50 20 27 1013.3 1013.2 0.0
17/08:00am 23.1 17.3 13.8 55 5.4 SSW 37 50 20 27 1013.2 1013.1 0.0
17/07:30am 22.3 17.6 14.9 63 4.4 SSW 33 44 18 24 1013.3 1013.2 0.0
17/07:00am 21.0 18.6 15.3 70 3.4 SSW 22 35 12 19 1013.4 1013.3 0.0
17/06:30am 19.8 18.0 15.4 76 2.6 SSW 19 24 10 13 1013.2 1013.1 0.0
17/06:00am 18.5 17.4 15.2 81 1.9 SW 15 19 8 10 1012.9 1012.8 0.0
17/05:30am 18.3 17.2 15.2 82 1.8 SSW 15 20 8 11 1012.5 1012.4 0.0
17/05:00am 18.5 17.0 15.4 82 1.8 SW 17 20 9 11 1012.0 1011.9 0.0
17/04:30am 18.6 17.6 15.5 82 1.8 SW 15 19 8 10 1011.7 1011.6 0.0
17/04:00am 18.6 17.8 15.1 80 2.0 SW 13 17 7 9 1011.5 1011.4 0.0
17/03:30am 18.9 17.8 15.4 80 2.1 SW 15 19 8 10 1011.2 1011.1 0.0
17/03:00am 18.7 17.2 15.2 80 2.1 SSW 17 24 9 13 1010.9 1010.8 0.0
17/02:30am 18.9 17.4 15.2 79 2.2 SSW 17 22 9 12 1010.9 1010.8 0.0
17/02:00am 19.1 17.2 15.2 78 2.3 SSW 19 24 10 13 1010.9 1010.8 0.0
17/01:30am 19.6 17.4 15.0 75 2.7 SSW 20 32 11 17 1011.1 1011.0 0.0
17/01:00am 19.5 17.3 15.0 75 2.6 SSW 20 26 11 14 1011.3 1011.2 0.0
17/12:30am 19.5 17.2 14.7 74 2.8 SSW 20 24 11 13 1011.6 1011.5 0.0
17/12:00am 19.7 17.5 14.9 74 2.8 SSW 20 26 11 14 1012.0 1011.9 0.0

Other Formats:

Comma delimited format used in spreadsheet applications
http://www.bom.gov.au/fwo/IDW60801/IDW60801.94302.axf

JavaScript Object Notation format (JSON) in row-major order
http://www.bom.gov.au/fwo/IDW60801/IDW60801.94302.json